Time;durP1;ratioP1;P1;durP2;ratioP2;P2;SDS_P1;SDS_P2;PMS_P1;PMS_P2;Temp;Humidity;BMP_temperature;BMP_pressure;BME280_temperature;BME280_humidity;BME280_pressure;Samples;Min_cycle;Max_cycle;Signal;HPM_P1;HPM_P2
2022/02/22 00:01:54;;;;;;;44.35;8.40;;;6.60;99.90;;;;;;5009378;28;25081;-74
2022/02/22 00:04:20;;;;;;;47.50;8.25;;;6.60;99.90;;;;;;5008314;28;25057;-71
2022/02/22 00:06:45;;;;;;;50.33;10.80;;;6.60;99.90;;;;;;5001224;28;25059;-71
2022/02/22 00:09:11;;;;;;;57.65;9.05;;;6.60;99.90;;;;;;4991668;28;25062;-74
2022/02/22 00:11:37;;;;;;;56.67;8.02;;;6.60;99.90;;;;;;5009463;28;25059;-72
2022/02/22 00:14:03;;;;;;;58.72;9.70;;;6.50;99.90;;;;;;5009810;28;25099;-72
2022/02/22 00:16:28;;;;;;;50.80;8.70;;;6.50;99.90;;;;;;5001009;28;25487;-70
2022/02/22 00:18:54;;;;;;;52.40;8.32;;;6.60;99.90;;;;;;5009186;28;25066;-71
2022/02/22 00:21:19;;;;;;;53.65;8.75;;;6.50;99.90;;;;;;5000819;28;25078;-75
2022/02/22 00:23:45;;;;;;;55.92;9.90;;;6.50;99.90;;;;;;5006250;28;25073;-73
2022/02/22 00:26:10;;;;;;;64.22;10.30;;;6.50;99.90;;;;;;5002960;28;25158;-72
2022/02/22 00:28:36;;;;;;;58.92;8.45;;;6.50;99.90;;;;;;5000490;28;25074;-73
2022/02/22 00:31:02;;;;;;;46.40;7.55;;;6.50;99.90;;;;;;5007479;28;25071;-72
2022/02/22 00:33:28;;;;;;;53.97;10.18;;;6.40;99.90;;;;;;5009105;28;25137;-72
2022/02/22 00:35:54;;;;;;;65.25;9.50;;;6.40;99.90;;;;;;5006270;28;25092;-73
2022/02/22 00:38:21;;;;;;;54.58;8.30;;;6.40;99.90;;;;;;5009142;28;25079;-71
2022/02/22 00:40:47;;;;;;;53.40;7.80;;;6.40;99.90;;;;;;5005155;28;25099;-70
2022/02/22 00:43:13;;;;;;;62.90;9.45;;;6.30;99.90;;;;;;5008836;28;25093;-72
2022/02/22 00:45:39;;;;;;;64.93;10.70;;;6.40;99.90;;;;;;5008212;28;25129;-71
2022/02/22 00:48:04;;;;;;;48.22;8.00;;;6.40;99.90;;;;;;5011440;28;25165;-72
2022/02/22 00:50:30;;;;;;;51.65;9.80;;;6.40;99.90;;;;;;4993935;28;25105;-71
2022/02/22 00:52:56;;;;;;;46.65;8.40;;;6.40;99.90;;;;;;5011775;28;25108;-71
2022/02/22 00:55:23;;;;;;;52.17;9.90;;;6.50;99.90;;;;;;5012403;28;25134;-71
2022/02/22 00:57:49;;;;;;;52.60;8.82;;;6.50;99.90;;;;;;5012705;28;25059;-71
2022/02/22 01:00:15;;;;;;;55.25;9.93;;;6.40;99.90;;;;;;5013916;28;25066;-72
2022/02/22 01:02:41;;;;;;;50.92;8.88;;;6.40;99.90;;;;;;5011935;28;25047;-72
2022/02/22 01:05:07;;;;;;;61.00;8.90;;;6.40;99.90;;;;;;5012290;28;25056;-71
2022/02/22 01:07:32;;;;;;;50.40;8.70;;;6.40;99.90;;;;;;4994645;28;25174;-73
2022/02/22 01:09:58;;;;;;;55.00;8.63;;;6.30;99.90;;;;;;5011286;28;25097;-71
2022/02/22 01:12:24;;;;;;;52.05;8.07;;;6.30;99.90;;;;;;5012789;28;25055;-72
2022/02/22 01:14:49;;;;;;;68.13;10.07;;;6.30;99.90;;;;;;4993057;28;25124;-71
2022/02/22 01:17:15;;;;;;;58.63;8.57;;;6.30;99.90;;;;;;4977294;28;25069;-71
2022/02/22 01:19:41;;;;;;;39.33;7.13;;;6.30;99.90;;;;;;5011192;28;25063;-72
2022/02/22 01:22:06;;;;;;;41.35;7.78;;;6.30;99.90;;;;;;5012422;28;25070;-73
2022/02/22 01:24:32;;;;;;;42.50;7.90;;;6.30;99.90;;;;;;5010746;28;25147;-72
2022/02/22 01:26:58;;;;;;;58.75;9.85;;;6.20;99.90;;;;;;5010511;28;25055;-72
2022/02/22 01:29:26;;;;;;;51.10;8.55;;;6.30;99.90;;;;;;5011891;28;25078;-73
2022/02/22 01:31:51;;;;;;;47.15;7.97;;;6.30;99.90;;;;;;4993493;28;25072;-72
2022/02/22 01:34:17;;;;;;;53.45;8.60;;;6.20;99.90;;;;;;5010507;28;25149;-72
2022/02/22 01:36:45;;;;;;;51.78;8.85;;;6.20;99.90;;;;;;5010610;28;25067;-72
2022/02/22 01:39:11;;;;;;;48.72;7.93;;;6.20;99.90;;;;;;5012389;28;25114;-73
2022/02/22 01:41:39;;;;;;;59.40;9.80;;;6.10;99.90;;;;;;4994103;28;25157;-74
2022/02/22 01:44:05;;;;;;;47.88;8.57;;;6.10;99.90;;;;;;5011439;28;25051;-73
2022/02/22 01:46:30;;;;;;;39.47;7.53;;;6.10;99.90;;;;;;5011228;28;25073;-71
2022/02/22 01:48:56;;;;;;;45.72;7.78;;;6.10;99.90;;;;;;5010149;28;25078;-72
2022/02/22 01:51:22;;;;;;;47.92;7.05;;;6.10;99.90;;;;;;5008061;28;25049;-72
2022/02/22 01:53:48;;;;;;;52.20;9.60;;;6.10;99.90;;;;;;5008258;28;25057;-73
2022/02/22 01:56:16;;;;;;;52.70;9.68;;;6.10;99.90;;;;;;4989887;28;25057;-72
2022/02/22 01:58:43;;;;;;;48.05;7.88;;;6.10;99.90;;;;;;5007630;28;25107;-72
2022/02/22 02:01:09;;;;;;;53.17;8.82;;;6.10;99.90;;;;;;4989893;28;25134;-72
2022/02/22 02:03:35;;;;;;;58.55;7.88;;;6.10;99.90;;;;;;5007903;28;25055;-73
2022/02/22 02:06:01;;;;;;;58.92;9.15;;;6.10;99.90;;;;;;5007798;28;25132;-73
2022/02/22 02:08:27;;;;;;;48.53;8.55;;;6.00;99.90;;;;;;4990978;28;25150;-71
2022/02/22 02:10:52;;;;;;;53.15;8.63;;;6.00;99.90;;;;;;5010468;28;25204;-73
2022/02/22 02:13:20;;;;;;;34.75;7.93;;;6.00;99.90;;;;;;5008406;28;25161;-71
2022/02/22 02:15:45;;;;;;;46.85;7.38;;;6.10;99.90;;;;;;5007833;28;25069;-72
2022/02/22 02:18:11;;;;;;;39.85;7.85;;;6.10;99.90;;;;;;5007622;28;25146;-72
2022/02/22 02:20:36;;;;;;;49.70;7.88;;;5.90;99.90;;;;;;5006935;28;25096;-73
2022/02/22 02:23:02;;;;;;;47.88;7.90;;;6.00;99.90;;;;;;5007329;28;25100;-72
2022/02/22 02:25:27;;;;;;;56.08;8.73;;;6.00;99.90;;;;;;5006724;28;25091;-74
2022/02/22 02:27:53;;;;;;;51.05;8.32;;;5.90;99.90;;;;;;4993456;28;25088;-73
2022/02/22 02:30:18;;;;;;;49.92;8.07;;;5.80;99.90;;;;;;5006805;28;25075;-72
2022/02/22 02:32:45;;;;;;;42.92;7.70;;;5.80;99.90;;;;;;5007457;28;25077;-71
2022/02/22 02:35:10;;;;;;;44.00;8.35;;;5.80;99.90;;;;;;4994796;28;25119;-71
2022/02/22 02:37:37;;;;;;;46.78;8.05;;;5.70;99.90;;;;;;5013532;28;25056;-72
2022/02/22 02:40:08;;;;;;;46.35;9.05;;;5.70;99.90;;;;;;5010932;28;25102;-72
2022/02/22 02:42:34;;;;;;;45.67;6.85;;;5.60;99.90;;;;;;5011193;28;25144;-71
2022/02/22 02:45:00;;;;;;;52.40;7.82;;;5.60;99.90;;;;;;5010507;28;25074;-72
2022/02/22 02:47:26;;;;;;;41.22;8.68;;;5.60;99.90;;;;;;5010747;28;25073;-72
2022/02/22 02:49:51;;;;;;;49.80;8.38;;;5.60;99.90;;;;;;5010510;28;25067;-73
2022/02/22 02:52:17;;;;;;;42.90;7.07;;;5.60;99.90;;;;;;5011238;28;25170;-72
2022/02/22 02:54:43;;;;;;;36.00;6.30;;;5.60;99.90;;;;;;5010846;28;25071;-72
2022/02/22 02:57:09;;;;;;;35.40;6.85;;;5.60;99.90;;;;;;5011481;28;25108;-72
2022/02/22 02:59:35;;;;;;;48.83;6.88;;;5.60;99.90;;;;;;5011271;28;25064;-71
2022/02/22 03:02:00;;;;;;;44.47;6.55;;;5.60;99.90;;;;;;5010992;28;25111;-72
2022/02/22 03:04:26;;;;;;;42.47;8.10;;;5.70;99.90;;;;;;5011632;28;25092;-72
2022/02/22 03:06:51;;;;;;;42.67;6.90;;;5.60;99.90;;;;;;5012005;28;25101;-72
2022/02/22 03:09:17;;;;;;;41.55;6.38;;;5.60;99.90;;;;;;5030206;28;25105;-74
2022/02/22 03:11:43;;;;;;;54.38;7.80;;;5.50;99.90;;;;;;5028316;28;25071;-73
2022/02/22 03:14:09;;;;;;;42.78;6.25;;;5.60;99.90;;;;;;5018146;28;25080;-73
2022/02/22 03:16:35;;;;;;;47.28;6.68;;;5.60;99.90;;;;;;5020194;28;25064;-73
2022/02/22 03:19:04;;;;;;;43.95;7.43;;;5.50;99.90;;;;;;5013055;28;25065;-73
2022/02/22 03:21:30;;;;;;;49.55;6.85;;;5.50;99.90;;;;;;5019957;28;25063;-73
2022/02/22 03:23:56;;;;;;;44.83;6.75;;;5.50;99.90;;;;;;5027695;28;25101;-71
2022/02/22 03:26:22;;;;;;;36.65;7.35;;;5.50;99.90;;;;;;5024610;28;25068;-72
2022/02/22 03:28:48;;;;;;;39.78;6.60;;;5.50;99.90;;;;;;5015590;28;25060;-71
2022/02/22 03:31:13;;;;;;;36.03;6.50;;;5.50;99.90;;;;;;5011436;28;25132;-70
2022/02/22 03:33:39;;;;;;;33.55;7.13;;;5.60;99.90;;;;;;5011361;28;25082;-72
2022/02/22 03:36:05;;;;;;;26.63;6.55;;;5.60;99.90;;;;;;5001438;28;25057;-69
2022/02/22 03:38:31;;;;;;;40.42;5.82;;;5.50;99.90;;;;;;5011136;28;25068;-73
2022/02/22 03:40:57;;;;;;;35.55;6.20;;;5.40;99.90;;;;;;5010486;28;25125;-72
2022/02/22 03:43:22;;;;;;;39.20;6.28;;;5.40;99.90;;;;;;5010655;28;25138;-71
2022/02/22 03:45:48;;;;;;;48.58;8.63;;;5.40;99.90;;;;;;5010323;28;25070;-73
2022/02/22 03:48:14;;;;;;;39.45;6.32;;;5.40;99.90;;;;;;5010823;28;25078;-69
2022/02/22 03:50:39;;;;;;;48.47;7.15;;;5.40;99.90;;;;;;5005652;28;25108;-71
2022/02/22 03:53:05;;;;;;;37.88;6.53;;;5.30;99.90;;;;;;5007114;28;25059;-72
2022/02/22 03:55:30;;;;;;;43.67;5.78;;;5.30;99.90;;;;;;5009875;28;25106;-72
2022/02/22 03:57:56;;;;;;;45.95;6.00;;;5.30;99.90;;;;;;4992739;28;25109;-71
2022/02/22 04:00:24;;;;;;;39.83;6.47;;;5.30;99.90;;;;;;4992481;28;25070;-71
2022/02/22 04:02:50;;;;;;;36.88;5.68;;;5.30;99.90;;;;;;5009748;28;25067;-74
2022/02/22 04:05:17;;;;;;;39.90;6.03;;;5.30;99.90;;;;;;5010245;28;25086;-72
2022/02/22 04:07:44;;;;;;;46.92;7.20;;;5.30;99.90;;;;;;5011450;28;25061;-71
2022/02/22 04:10:10;;;;;;;40.65;6.95;;;5.30;99.90;;;;;;5011678;28;25082;-70
2022/02/22 04:12:36;;;;;;;34.40;5.82;;;5.20;99.90;;;;;;4992276;28;25095;-71
2022/02/22 04:15:03;;;;;;;47.75;6.50;;;5.20;99.90;;;;;;5009876;28;25058;-72
2022/02/22 04:17:29;;;;;;;37.58;6.80;;;5.20;99.90;;;;;;5008819;28;25087;-71
2022/02/22 04:19:55;;;;;;;30.10;6.57;;;5.20;99.90;;;;;;4969844;28;25090;-71
2022/02/22 04:22:20;;;;;;;43.47;5.53;;;5.20;99.90;;;;;;5010009;28;25186;-72
2022/02/22 04:24:46;;;;;;;38.85;6.65;;;5.20;99.90;;;;;;5009690;28;25069;-73
2022/02/22 04:27:12;;;;;;;47.38;6.95;;;5.20;99.90;;;;;;5010422;28;25069;-73
2022/02/22 04:29:38;;;;;;;50.97;6.70;;;5.20;99.90;;;;;;5009606;28;25070;-74
2022/02/22 04:32:05;;;;;;;35.97;6.38;;;5.20;99.90;;;;;;5009676;28;25159;-73
2022/02/22 04:34:31;;;;;;;37.60;7.50;;;5.10;99.90;;;;;;5008825;28;25133;-73
2022/02/22 04:36:57;;;;;;;38.72;6.40;;;5.10;99.90;;;;;;5008238;28;25160;-73
2022/02/22 04:39:22;;;;;;;49.80;7.22;;;5.10;99.90;;;;;;5010422;28;25081;-72
2022/02/22 04:41:50;;;;;;;35.75;5.47;;;5.10;99.90;;;;;;5012824;28;25056;-76
2022/02/22 04:44:15;;;;;;;30.88;4.97;;;5.10;99.90;;;;;;5031187;28;25062;-73
2022/02/22 04:46:41;;;;;;;46.55;5.63;;;5.10;99.90;;;;;;4995564;28;25113;-73
2022/02/22 04:49:09;;;;;;;35.30;6.00;;;5.10;99.90;;;;;;5009700;28;25098;-73
2022/02/22 04:51:36;;;;;;;40.88;6.60;;;5.10;99.90;;;;;;5009862;28;25109;-74
2022/02/22 04:54:02;;;;;;;41.50;5.43;;;5.10;99.90;;;;;;5009442;28;25144;-72
2022/02/22 04:56:27;;;;;;;37.53;7.03;;;5.10;99.90;;;;;;5009364;28;25100;-72
2022/02/22 04:58:54;;;;;;;34.30;5.47;;;5.10;99.90;;;;;;5008789;28;25059;-74
2022/02/22 05:01:20;;;;;;;38.80;6.05;;;5.10;99.90;;;;;;5009238;28;25138;-74
2022/02/22 05:03:45;;;;;;;42.10;6.75;;;5.10;99.90;;;;;;5009240;28;25148;-73
2022/02/22 05:06:11;;;;;;;33.60;6.20;;;5.10;99.90;;;;;;5009643;28;25090;-72
2022/02/22 05:08:36;;;;;;;29.85;6.20;;;5.20;99.90;;;;;;5009590;28;25102;-72
2022/02/22 05:11:02;;;;;;;35.90;5.72;;;5.20;99.90;;;;;;5009352;28;25072;-72
2022/02/22 05:13:28;;;;;;;27.00;4.50;;;5.20;99.90;;;;;;5008909;28;25063;-72
2022/02/22 05:15:53;;;;;;;36.15;5.93;;;5.20;99.90;;;;;;5008783;28;25110;-72
2022/02/22 05:18:19;;;;;;;32.20;6.13;;;5.20;99.90;;;;;;5007599;28;25058;-71
2022/02/22 05:20:54;;;;;;;34.55;5.88;;;5.20;99.90;;;;;;5001250;28;25169;-73
2022/02/22 05:23:28;;;;;;;33.88;5.55;;;5.20;99.90;;;;;;5008817;28;25133;-71
2022/02/22 05:25:54;;;;;;;31.70;4.95;;;5.20;99.90;;;;;;4998161;28;25085;-71
2022/02/22 05:28:22;;;;;;;36.63;5.32;;;5.10;99.90;;;;;;5008200;28;25134;-73
2022/02/22 05:30:49;;;;;;;35.33;5.55;;;5.10;99.90;;;;;;4991949;28;25144;-73
2022/02/22 05:33:16;;;;;;;35.15;4.65;;;5.00;99.90;;;;;;5001868;28;25077;-74
2022/02/22 05:35:44;;;;;;;35.75;6.20;;;5.00;99.90;;;;;;4997677;28;25086;-72
2022/02/22 05:38:09;;;;;;;38.25;5.57;;;5.00;99.90;;;;;;5001457;28;25158;-72
2022/02/22 05:40:35;;;;;;;37.88;7.10;;;5.00;99.90;;;;;;5004318;28;25097;-73
2022/02/22 05:43:01;;;;;;;33.92;5.95;;;5.00;99.90;;;;;;4997434;28;25130;-73
2022/02/22 05:45:26;;;;;;;30.77;4.95;;;5.00;99.90;;;;;;5000602;28;25119;-73
2022/02/22 05:47:52;;;;;;;27.85;5.53;;;5.00;99.90;;;;;;4999048;28;25137;-73
2022/02/22 05:50:18;;;;;;;28.88;5.18;;;5.00;99.90;;;;;;5007426;28;25072;-73
2022/02/22 05:52:43;;;;;;;30.35;4.90;;;5.00;99.90;;;;;;5008395;28;25082;-72
2022/02/22 05:55:09;;;;;;;29.33;5.43;;;5.00;99.90;;;;;;5007884;28;25136;-72
2022/02/22 05:57:34;;;;;;;27.02;4.45;;;5.00;99.90;;;;;;5008735;28;25150;-74
2022/02/22 06:00:00;;;;;;;31.65;5.25;;;5.00;99.90;;;;;;5007171;28;25060;-74
2022/02/22 06:02:26;;;;;;;34.33;5.80;;;4.90;99.90;;;;;;5012042;28;25146;-71
2022/02/22 06:04:52;;;;;;;32.30;5.95;;;4.90;99.90;;;;;;5011729;28;25070;-72
2022/02/22 06:07:20;;;;;;;33.05;5.18;;;4.90;99.90;;;;;;5012742;28;25077;-70
2022/02/22 06:09:46;;;;;;;28.67;5.30;;;4.80;99.90;;;;;;5012929;28;25075;-72
2022/02/22 06:12:12;;;;;;;33.05;5.35;;;4.80;99.90;;;;;;5000093;28;25055;-71
2022/02/22 06:14:38;;;;;;;26.85;5.05;;;4.80;99.90;;;;;;5011567;28;25084;-74
2022/02/22 06:17:04;;;;;;;37.60;4.97;;;4.80;99.90;;;;;;5026906;28;25095;-72
2022/02/22 06:19:29;;;;;;;27.05;5.20;;;4.90;99.90;;;;;;5034139;28;25079;-72
2022/02/22 06:21:55;;;;;;;27.77;5.47;;;4.90;99.90;;;;;;5009843;28;25059;-71
2022/02/22 06:24:20;;;;;;;32.33;5.05;;;4.80;99.90;;;;;;5009811;28;25153;-71
2022/02/22 06:26:46;;;;;;;38.17;5.07;;;4.90;99.90;;;;;;5020598;28;25051;-71
2022/02/22 06:29:11;;;;;;;27.33;5.05;;;5.00;99.90;;;;;;5030878;28;25076;-71
2022/02/22 06:31:37;;;;;;;30.02;5.45;;;5.00;99.90;;;;;;5030082;28;25107;-73
2022/02/22 06:34:06;;;;;;;27.38;4.90;;;5.00;99.90;;;;;;5032010;28;25081;-74
2022/02/22 06:36:34;;;;;;;36.15;5.82;;;5.10;99.90;;;;;;5035077;28;25083;-75
2022/02/22 06:39:01;;;;;;;41.00;5.95;;;5.10;99.90;;;;;;5011265;28;25066;-74
2022/02/22 06:41:27;;;;;;;28.60;4.55;;;5.20;99.90;;;;;;5031946;28;25068;-73
2022/02/22 06:43:53;;;;;;;30.92;6.03;;;5.20;99.90;;;;;;5035242;28;25057;-74
2022/02/22 06:46:19;;;;;;;30.23;5.60;;;5.30;99.90;;;;;;5036532;28;25095;-75
2022/02/22 06:48:44;;;;;;;41.00;6.55;;;5.30;99.90;;;;;;5029196;28;25061;-75
2022/02/22 06:51:10;;;;;;;40.38;7.30;;;5.40;99.90;;;;;;5011269;28;25113;-76
2022/02/22 06:53:36;;;;;;;38.60;7.30;;;5.40;99.90;;;;;;5005983;28;25080;-73
2022/02/22 06:56:02;;;;;;;40.42;6.43;;;5.40;99.90;;;;;;5008591;28;25064;-73
2022/02/22 06:58:28;;;;;;;38.78;7.10;;;5.50;99.90;;;;;;5006432;28;25125;-73
2022/02/22 07:00:55;;;;;;;40.03;8.00;;;5.50;99.90;;;;;;5001786;28;25102;-74
2022/02/22 07:03:21;;;;;;;57.17;10.25;;;5.50;99.90;;;;;;5002131;28;25062;-73
2022/02/22 07:05:47;;;;;;;44.60;7.35;;;5.60;99.90;;;;;;4999034;28;25053;-73
2022/02/22 07:08:12;;;;;;;49.30;7.43;;;5.60;99.90;;;;;;5002067;28;25112;-75
2022/02/22 07:10:38;;;;;;;38.47;7.53;;;5.70;99.90;;;;;;5003145;28;25063;-74
2022/02/22 07:13:04;;;;;;;42.22;7.10;;;5.70;99.90;;;;;;5007491;28;25070;-75
2022/02/22 07:15:29;;;;;;;41.65;7.43;;;5.80;99.90;;;;;;4999732;28;25107;-73
2022/02/22 07:18:02;;;;;;;39.80;7.93;;;5.80;99.90;;;;;;4998879;28;25151;-75
2022/02/22 07:20:28;;;;;;;46.90;7.28;;;5.80;99.90;;;;;;5003287;28;25112;-74
2022/02/22 07:22:55;;;;;;;42.78;7.40;;;5.90;99.90;;;;;;4996550;28;25077;-76
2022/02/22 07:25:22;;;;;;;44.70;7.20;;;6.00;99.90;;;;;;4999301;28;25495;-74
2022/02/22 07:27:48;;;;;;;37.10;6.75;;;6.00;99.90;;;;;;4999767;28;25079;-75
2022/02/22 07:30:16;;;;;;;39.67;7.25;;;6.00;99.90;;;;;;5003042;28;25057;-75
2022/02/22 07:32:42;;;;;;;44.83;7.75;;;6.10;99.90;;;;;;4994815;28;25067;-75
2022/02/22 07:35:09;;;;;;;35.40;7.25;;;6.10;99.90;;;;;;5012532;28;25067;-73
2022/02/22 07:37:38;;;;;;;42.58;7.45;;;6.10;99.90;;;;;;5013757;28;25118;-74
2022/02/22 07:40:06;;;;;;;45.35;8.23;;;6.20;99.90;;;;;;4997246;28;25072;-74
2022/02/22 07:42:32;;;;;;;43.33;7.43;;;6.20;99.90;;;;;;5015338;28;25134;-75
2022/02/22 07:44:57;;;;;;;45.35;7.72;;;6.30;99.90;;;;;;5001890;28;25066;-75
2022/02/22 07:47:23;;;;;;;45.78;8.35;;;6.20;99.90;;;;;;5032692;28;25103;-76
2022/02/22 07:49:49;;;;;;;42.85;8.40;;;6.20;99.90;;;;;;5039120;28;25079;-78
2022/02/22 07:52:14;;;;;;;41.17;8.10;;;6.20;99.90;;;;;;5022104;28;25099;-76
2022/02/22 07:54:40;;;;;;;48.75;7.68;;;6.30;99.90;;;;;;5019666;28;25055;-80
2022/02/22 07:57:06;;;;;;;43.65;8.45;;;6.30;99.90;;;;;;5032769;28;25064;-76
2022/02/22 07:59:31;;;;;;;42.35;8.35;;;6.30;99.90;;;;;;5004620;28;25071;-75
2022/02/22 08:01:57;;;;;;;52.05;8.27;;;6.30;99.90;;;;;;5011400;28;25057;-77
2022/02/22 08:04:26;;;;;;;48.90;8.60;;;6.30;99.90;;;;;;5008871;28;25081;-76
2022/02/22 08:06:54;;;;;;;44.88;8.43;;;6.30;99.90;;;;;;5000230;28;25103;-77
2022/02/22 08:09:19;;;;;;;41.80;8.75;;;6.40;99.90;;;;;;5001255;28;25059;-78
2022/02/22 08:11:46;;;;;;;42.22;7.97;;;6.40;99.90;;;;;;5011421;28;25111;-75
2022/02/22 08:14:12;;;;;;;46.15;8.40;;;6.40;99.90;;;;;;5011107;28;25145;-76
2022/02/22 08:16:37;;;;;;;45.83;9.00;;;6.40;99.90;;;;;;5012208;28;25174;-74
2022/02/22 08:19:03;;;;;;;47.58;8.95;;;6.40;99.90;;;;;;5010296;28;25093;-76
2022/02/22 08:21:28;;;;;;;44.10;8.85;;;6.50;99.90;;;;;;5011942;28;25059;-75
2022/02/22 08:23:54;;;;;;;41.72;9.18;;;6.50;99.90;;;;;;5002543;28;25113;-75
2022/02/22 08:26:21;;;;;;;51.22;9.70;;;6.60;99.90;;;;;;5010903;28;25059;-75
2022/02/22 08:28:46;;;;;;;38.47;9.30;;;6.60;99.90;;;;;;5010242;28;25079;-76
2022/02/22 08:31:12;;;;;;;39.72;9.20;;;6.60;99.90;;;;;;4991175;28;25155;-76
2022/02/22 08:33:38;;;;;;;40.42;9.30;;;6.60;99.90;;;;;;5010214;28;25077;-76
2022/02/22 08:36:04;;;;;;;48.05;11.30;;;6.60;99.90;;;;;;5009962;28;25155;-76
2022/02/22 08:38:29;;;;;;;49.78;10.27;;;6.60;99.90;;;;;;5009791;28;25167;-75
2022/02/22 08:40:55;;;;;;;45.33;9.60;;;6.60;99.90;;;;;;5009698;28;25073;-74
2022/02/22 08:43:20;;;;;;;42.65;9.70;;;6.60;99.90;;;;;;5013511;28;25068;-75
2022/02/22 08:45:46;;;;;;;36.03;9.82;;;6.60;99.90;;;;;;5013615;28;25103;-74
2022/02/22 08:48:13;;;;;;;41.33;10.57;;;6.60;99.90;;;;;;4992909;28;25056;-75
2022/02/22 08:50:39;;;;;;;43.28;10.60;;;6.70;99.90;;;;;;5010931;28;25058;-74
2022/02/22 08:53:05;;;;;;;42.33;10.88;;;6.70;99.90;;;;;;5009275;28;25073;-75
2022/02/22 08:55:31;;;;;;;38.33;9.82;;;6.80;99.90;;;;;;5009451;28;25178;-74
2022/02/22 08:57:58;;;;;;;57.05;12.00;;;6.80;99.90;;;;;;5009501;28;25058;-73
2022/02/22 09:00:24;;;;;;;48.28;11.50;;;6.80;99.90;;;;;;4998637;28;25113;-76
2022/02/22 09:02:53;;;;;;;40.08;9.75;;;6.90;99.90;;;;;;4996027;28;25155;-74
2022/02/22 09:05:19;;;;;;;41.40;11.90;;;7.00;99.90;;;;;;5000068;28;25096;-72
2022/02/22 09:07:45;;;;;;;46.45;10.45;;;7.10;99.90;;;;;;4997596;28;25081;-75
2022/02/22 09:10:15;;;;;;;44.08;11.27;;;7.20;99.90;;;;;;4992731;28;25152;-74
2022/02/22 09:12:42;;;;;;;44.00;11.20;;;7.20;99.90;;;;;;4996642;28;25147;-75
2022/02/22 09:15:10;;;;;;;36.30;8.90;;;7.30;99.90;;;;;;4995913;28;25068;-74
2022/02/22 09:17:36;;;;;;;39.28;11.10;;;7.30;99.90;;;;;;4993013;28;25055;-74
2022/02/22 09:20:03;;;;;;;35.13;9.60;;;7.30;99.90;;;;;;4997551;28;25062;-75
2022/02/22 09:22:28;;;;;;;45.47;9.45;;;7.30;99.90;;;;;;4998254;28;25104;-77
2022/02/22 09:24:54;;;;;;;43.25;10.10;;;7.30;99.90;;;;;;4996196;28;25091;-73
2022/02/22 09:27:19;;;;;;;44.30;9.10;;;7.20;99.90;;;;;;5000221;28;25059;-74
2022/02/22 09:29:45;;;;;;;42.63;10.77;;;7.20;99.90;;;;;;4998582;28;25074;-76
2022/02/22 09:32:11;;;;;;;37.92;9.32;;;7.20;99.90;;;;;;5001056;28;25129;-75
2022/02/22 09:34:37;;;;;;;40.47;9.30;;;7.30;99.90;;;;;;4996471;28;25060;-76
2022/02/22 09:37:05;;;;;;;38.05;8.68;;;7.40;99.90;;;;;;5003260;28;25102;-76
2022/02/22 09:39:31;;;;;;;41.85;9.10;;;7.50;99.90;;;;;;4995595;28;25152;-75
2022/02/22 09:41:58;;;;;;;34.40;8.07;;;7.60;99.90;;;;;;4975206;28;25122;-75
2022/02/22 09:44:23;;;;;;;43.95;10.35;;;7.60;99.90;;;;;;5006356;28;25049;-76
2022/02/22 09:46:50;;;;;;;41.90;8.52;;;7.70;99.90;;;;;;4988214;28;25103;-75
2022/02/22 09:49:16;;;;;;;50.22;11.15;;;7.80;99.90;;;;;;4994842;28;25058;-73
2022/02/22 09:51:41;;;;;;;42.92;9.95;;;7.80;99.90;;;;;;5000513;28;25058;-76
2022/02/22 09:54:07;;;;;;;44.28;11.60;;;7.80;99.90;;;;;;4997572;28;25138;-74
2022/02/22 09:56:41;;;;;;;52.33;10.45;;;7.70;99.90;;;;;;5008726;28;25079;-75
2022/02/22 09:59:07;;;;;;;47.42;9.85;;;7.70;99.90;;;;;;5003765;28;25136;-75
2022/02/22 10:01:41;;;;;;;40.92;9.50;;;7.80;99.90;;;;;;5003847;28;25056;-75
2022/02/22 10:04:08;;;;;;;43.88;9.75;;;7.80;99.90;;;;;;4989847;28;25051;-72
2022/02/22 10:06:34;;;;;;;40.67;8.80;;;7.90;99.90;;;;;;4997686;28;25063;-74
2022/02/22 10:08:59;;;;;;;56.95;10.38;;;7.90;99.90;;;;;;4990475;28;25081;-76
2022/02/22 10:11:25;;;;;;;51.97;11.43;;;8.00;99.90;;;;;;5000461;28;25069;-76
2022/02/22 10:13:51;;;;;;;47.53;9.85;;;8.00;99.90;;;;;;4994113;28;25079;-78
2022/02/22 10:16:17;;;;;;;57.88;10.82;;;8.00;99.90;;;;;;4993089;28;25098;-75
2022/02/22 10:18:46;;;;;;;60.67;10.57;;;7.90;99.90;;;;;;4994604;28;25076;-75
2022/02/22 10:21:12;;;;;;;60.75;11.63;;;7.90;99.90;;;;;;4993506;28;25079;-77
2022/02/22 10:23:37;;;;;;;60.72;10.18;;;7.90;99.90;;;;;;4994810;28;25119;-74
2022/02/22 10:26:03;;;;;;;51.65;10.45;;;7.80;99.90;;;;;;4997699;28;25079;-74
2022/02/22 10:28:29;;;;;;;57.92;12.90;;;7.80;99.90;;;;;;5005937;28;25147;-76
2022/02/22 10:30:55;;;;;;;55.40;10.82;;;7.80;99.90;;;;;;5004073;28;25048;-73
2022/02/22 10:33:24;;;;;;;65.28;13.35;;;7.90;99.90;;;;;;5009404;28;25116;-73
2022/02/22 10:35:52;;;;;;;59.85;12.07;;;7.90;99.90;;;;;;4993438;28;25078;-74
2022/02/22 10:38:27;;;;;;;66.35;13.32;;;7.90;99.90;;;;;;5010878;28;25011;-77
2022/02/22 10:41:14;;;;;;;60.08;13.75;;;7.80;99.90;;;;;;5008007;28;25128;-76
2022/02/22 10:43:41;;;;;;;50.80;11.95;;;7.80;99.90;;;;;;5006206;28;25085;-72
2022/02/22 10:46:09;;;;;;;83.20;16.83;;;7.80;99.90;;;;;;5008875;28;25064;-74
2022/02/22 10:48:35;;;;;;;57.95;13.95;;;7.70;99.90;;;;;;5012654;28;25074;-75
2022/02/22 10:51:05;;;;;;;59.08;12.75;;;7.80;99.90;;;;;;5022759;28;25072;-72
2022/02/22 10:53:40;;;;;;;69.53;12.98;;;7.80;99.90;;;;;;5004666;28;25125;-73
2022/02/22 10:56:12;;;;;;;59.00;12.52;;;7.80;99.90;;;;;;5014736;28;25078;-72
2022/02/22 10:58:40;;;;;;;64.47;14.50;;;7.80;99.90;;;;;;5016870;28;25091;-73
2022/02/22 11:01:10;;;;;;;62.00;14.55;;;7.80;99.90;;;;;;5015814;28;25063;-74
2022/02/22 11:03:36;;;;;;;69.22;16.65;;;7.90;99.90;;;;;;5021289;28;25057;-74
2022/02/22 11:06:02;;;;;;;69.97;14.30;;;7.90;99.90;;;;;;5025195;28;25049;-73
2022/02/22 11:08:31;;;;;;;60.40;13.50;;;8.00;99.90;;;;;;5016538;28;25129;-72
2022/02/22 11:11:09;;;;;;;72.07;13.23;;;8.00;99.90;;;;;;5014252;28;25105;-73
2022/02/22 11:13:36;;;;;;;67.95;15.88;;;8.00;99.90;;;;;;5013376;28;25097;-70
2022/02/22 11:16:13;;;;;;;64.28;14.88;;;8.10;99.90;;;;;;5012571;28;25072;-73
2022/02/22 11:18:45;;;;;;;60.60;13.98;;;8.10;99.90;;;;;;5013874;28;25056;-72
2022/02/22 11:21:11;;;;;;;65.70;14.10;;;8.20;99.90;;;;;;5014733;28;25090;-74
2022/02/22 11:23:37;;;;;;;67.40;15.50;;;8.30;99.90;;;;;;5013387;28;25058;-74
2022/02/22 11:26:10;;;;;;;56.50;12.20;;;8.20;99.90;;;;;;5013985;28;25150;-73
2022/02/22 11:28:38;;;;;;;63.38;14.35;;;8.30;99.90;;;;;;4996838;28;25122;-75
2022/02/22 11:31:10;;;;;;;59.92;13.43;;;8.30;99.90;;;;;;5025069;28;25138;-75
2022/02/22 11:33:40;;;;;;;87.07;14.55;;;8.40;99.90;;;;;;5031945;28;25075;-73
2022/02/22 11:36:08;;;;;;;58.50;13.05;;;8.40;99.90;;;;;;5029867;28;25085;-72
2022/02/22 11:38:43;;;;;;;57.63;14.13;;;8.50;99.90;;;;;;5003716;28;25092;-74
2022/02/22 11:41:29;;;;;;;52.03;12.95;;;8.60;99.90;;;;;;5000100;28;25116;-74
2022/02/22 11:44:00;;;;;;;53.03;12.15;;;8.70;99.90;;;;;;5013085;28;25070;-72
2022/02/22 11:46:47;;;;;;;49.40;12.48;;;8.70;99.90;;;;;;5011171;28;25099;-74
2022/02/22 11:49:28;;;;;;;46.17;10.88;;;8.80;99.90;;;;;;5011167;28;25063;-74
2022/02/22 11:52:08;;;;;;;60.50;13.88;;;8.90;99.90;;;;;;5013292;28;25195;-74
2022/02/22 11:54:34;;;;;;;57.83;11.73;;;9.00;99.90;;;;;;5010063;28;25124;-73
2022/02/22 11:57:12;;;;;;;61.90;12.10;;;9.00;99.90;;;;;;5010783;28;25065;-75
2022/02/22 12:00:05;;;;;;;43.33;11.60;;;9.10;99.90;;;;;;5008771;28;25059;-74
2022/02/22 12:02:33;;;;;;;53.67;12.35;;;9.20;99.90;;;;;;5003036;28;25065;-73
2022/02/22 12:05:00;;;;;;;54.20;13.32;;;9.20;99.90;;;;;;5009779;28;25073;-74
2022/02/22 12:07:32;;;;;;;46.38;10.25;;;9.20;99.90;;;;;;5010298;28;25068;-74
2022/02/22 12:09:59;;;;;;;40.85;10.43;;;9.30;99.90;;;;;;5010221;28;25141;-74
2022/02/22 12:12:26;;;;;;;43.88;11.25;;;9.30;99.90;;;;;;5009346;28;25058;-73
2022/02/22 12:14:56;;;;;;;51.25;11.10;;;9.30;99.90;;;;;;5003487;28;25140;-73
2022/02/22 12:17:22;;;;;;;42.67;10.95;;;9.40;99.90;;;;;;4991759;28;25145;-75
2022/02/22 12:19:54;;;;;;;36.72;9.35;;;9.40;99.90;;;;;;5009079;28;25068;-76
2022/02/22 12:22:25;;;;;;;36.08;9.70;;;9.40;99.90;;;;;;5008957;28;25057;-74
2022/02/22 12:25:05;;;;;;;40.17;10.83;;;9.40;99.90;;;;;;5009489;28;25100;-74
2022/02/22 12:27:33;;;;;;;45.50;11.25;;;9.40;99.90;;;;;;5009666;28;25081;-72
2022/02/22 12:29:59;;;;;;;35.38;9.02;;;9.50;99.90;;;;;;5009334;28;25099;-76
2022/02/22 12:32:35;;;;;;;41.20;10.10;;;9.50;99.90;;;;;;5009036;28;25082;-73
2022/02/22 12:35:06;;;;;;;30.02;8.65;;;9.50;99.90;;;;;;4987382;28;25069;-73
2022/02/22 12:37:42;;;;;;;35.00;9.45;;;9.60;99.90;;;;;;4980418;28;25069;-74
2022/02/22 12:40:19;;;;;;;42.47;11.02;;;9.60;99.90;;;;;;5000481;28;25057;-74
2022/02/22 12:42:44;;;;;;;32.17;7.65;;;9.60;99.90;;;;;;5001541;28;25065;-77